sensor_id;sensor_type;location;lat;lon;timestamp;P1;durP1;ratioP1;P2;durP2;ratioP2
64710;SDS011;51139;45.626;6.850;2022-09-09T00:01:15;1.33;;;0.60;;
64710;SDS011;51139;45.626;6.850;2022-09-09T00:06:19;1.90;;;0.70;;
64710;SDS011;51139;45.626;6.850;2022-09-09T00:11:32;2.10;;;0.70;;
64710;SDS011;51139;45.626;6.850;2022-09-09T00:16:49;1.75;;;1.13;;
64710;SDS011;51139;45.626;6.850;2022-09-09T00:22:00;2.78;;;1.00;;
64710;SDS011;51139;45.626;6.850;2022-09-09T00:24:41;1.67;;;0.70;;
64710;SDS011;51139;45.626;6.850;2022-09-09T00:27:19;1.30;;;0.70;;
64710;SDS011;51139;45.626;6.850;2022-09-09T00:32:36;2.45;;;0.80;;
64710;SDS011;51139;45.626;6.850;2022-09-09T00:35:14;0.75;;;0.65;;
64710;SDS011;51139;45.626;6.850;2022-09-09T00:37:41;1.55;;;0.82;;
64710;SDS011;51139;45.626;6.850;2022-09-09T00:40:18;1.08;;;0.70;;
64710;SDS011;51139;45.626;6.850;2022-09-09T00:42:48;2.08;;;0.75;;
64710;SDS011;51139;45.626;6.850;2022-09-09T00:48:10;2.03;;;0.85;;
64710;SDS011;51139;45.626;6.850;2022-09-09T00:59:58;1.45;;;0.80;;
64710;SDS011;51139;45.626;6.850;2022-09-09T01:02:52;2.05;;;0.73;;
64710;SDS011;51139;45.626;6.850;2022-09-09T01:08:36;1.73;;;0.80;;
64710;SDS011;51139;45.626;6.850;2022-09-09T01:11:10;1.10;;;0.70;;
64710;SDS011;51139;45.626;6.850;2022-09-09T01:14:11;1.98;;;0.85;;
64710;SDS011;51139;45.626;6.850;2022-09-09T01:16:48;1.58;;;0.80;;
64710;SDS011;51139;45.626;6.850;2022-09-09T01:19:19;1.65;;;0.90;;
64710;SDS011;51139;45.626;6.850;2022-09-09T01:22:08;1.55;;;0.80;;
64710;SDS011;51139;45.626;6.850;2022-09-09T01:25:22;2.30;;;0.75;;
64710;SDS011;51139;45.626;6.850;2022-09-09T01:28:08;1.55;;;0.60;;
64710;SDS011;51139;45.626;6.850;2022-09-09T01:30:38;1.20;;;0.60;;
64710;SDS011;51139;45.626;6.850;2022-09-09T01:33:07;2.20;;;0.68;;
64710;SDS011;51139;45.626;6.850;2022-09-09T01:35:42;1.52;;;0.70;;
64710;SDS011;51139;45.626;6.850;2022-09-09T01:38:15;1.60;;;0.90;;
64710;SDS011;51139;45.626;6.850;2022-09-09T01:40:42;2.13;;;0.77;;
64710;SDS011;51139;45.626;6.850;2022-09-09T01:43:08;1.50;;;0.90;;
64710;SDS011;51139;45.626;6.850;2022-09-09T01:45:34;1.65;;;0.80;;
64710;SDS011;51139;45.626;6.850;2022-09-09T01:48:00;1.08;;;0.82;;
64710;SDS011;51139;45.626;6.850;2022-09-09T01:50:27;2.55;;;0.80;;
64710;SDS011;51139;45.626;6.850;2022-09-09T01:52:53;1.70;;;0.70;;
64710;SDS011;51139;45.626;6.850;2022-09-09T02:04:41;2.05;;;0.70;;
64710;SDS011;51139;45.626;6.850;2022-09-09T02:07:19;1.70;;;0.73;;
64710;SDS011;51139;45.626;6.850;2022-09-09T02:09:50;1.65;;;0.70;;
64710;SDS011;51139;45.626;6.850;2022-09-09T02:12:22;3.17;;;0.80;;
64710;SDS011;51139;45.626;6.850;2022-09-09T02:14:51;2.35;;;0.88;;
64710;SDS011;51139;45.626;6.850;2022-09-09T02:17:25;1.75;;;1.00;;
64710;SDS011;51139;45.626;6.850;2022-09-09T02:20:01;1.70;;;0.80;;
64710;SDS011;51139;45.626;6.850;2022-09-09T02:22:33;1.20;;;0.82;;
64710;SDS011;51139;45.626;6.850;2022-09-09T02:25:04;1.52;;;0.90;;
64710;SDS011;51139;45.626;6.850;2022-09-09T02:27:33;4.20;;;0.98;;
64710;SDS011;51139;45.626;6.850;2022-09-09T02:30:00;4.60;;;0.80;;
64710;SDS011;51139;45.626;6.850;2022-09-09T02:32:27;2.03;;;0.73;;
64710;SDS011;51139;45.626;6.850;2022-09-09T02:34:58;1.83;;;0.60;;
64710;SDS011;51139;45.626;6.850;2022-09-09T02:37:35;2.38;;;0.90;;
64710;SDS011;51139;45.626;6.850;2022-09-09T02:40:04;1.88;;;0.80;;
64710;SDS011;51139;45.626;6.850;2022-09-09T02:42:31;1.60;;;0.80;;
64710;SDS011;51139;45.626;6.850;2022-09-09T02:44:57;1.08;;;0.85;;
64710;SDS011;51139;45.626;6.850;2022-09-09T02:47:34;2.33;;;0.80;;
64710;SDS011;51139;45.626;6.850;2022-09-09T02:52:32;1.90;;;0.75;;
64710;SDS011;51139;45.626;6.850;2022-09-09T02:58:01;1.35;;;0.90;;
64710;SDS011;51139;45.626;6.850;2022-09-09T03:00:31;1.23;;;0.80;;
64710;SDS011;51139;45.626;6.850;2022-09-09T03:02:57;1.67;;;1.00;;
64710;SDS011;51139;45.626;6.850;2022-09-09T03:05:23;2.40;;;0.90;;
64710;SDS011;51139;45.626;6.850;2022-09-09T03:07:48;1.02;;;0.80;;
64710;SDS011;51139;45.626;6.850;2022-09-09T03:10:15;1.13;;;0.90;;
64710;SDS011;51139;45.626;6.850;2022-09-09T03:12:41;1.40;;;0.80;;
64710;SDS011;51139;45.626;6.850;2022-09-09T03:15:06;1.33;;;0.75;;
64710;SDS011;51139;45.626;6.850;2022-09-09T03:17:32;2.88;;;1.02;;
64710;SDS011;51139;45.626;6.850;2022-09-09T03:19:58;0.88;;;0.60;;
64710;SDS011;51139;45.626;6.850;2022-09-09T03:22:24;1.15;;;1.00;;
64710;SDS011;51139;45.626;6.850;2022-09-09T03:24:50;0.98;;;0.52;;
64710;SDS011;51139;45.626;6.850;2022-09-09T03:27:16;1.00;;;0.70;;
64710;SDS011;51139;45.626;6.850;2022-09-09T03:29:42;2.00;;;0.80;;
64710;SDS011;51139;45.626;6.850;2022-09-09T03:32:07;1.45;;;0.80;;
64710;SDS011;51139;45.626;6.850;2022-09-09T03:34:35;1.00;;;0.60;;
64710;SDS011;51139;45.626;6.850;2022-09-09T03:37:04;0.82;;;0.40;;
64710;SDS011;51139;45.626;6.850;2022-09-09T03:39:30;2.88;;;0.75;;
64710;SDS011;51139;45.626;6.850;2022-09-09T03:41:56;1.38;;;0.70;;
64710;SDS011;51139;45.626;6.850;2022-09-09T03:44:21;1.52;;;0.70;;
64710;SDS011;51139;45.626;6.850;2022-09-09T03:46:46;0.90;;;0.70;;
64710;SDS011;51139;45.626;6.850;2022-09-09T03:49:12;1.08;;;0.60;;
64710;SDS011;51139;45.626;6.850;2022-09-09T03:51:37;1.85;;;0.73;;
64710;SDS011;51139;45.626;6.850;2022-09-09T03:54:03;1.33;;;0.70;;
64710;SDS011;51139;45.626;6.850;2022-09-09T03:56:30;1.58;;;0.70;;
64710;SDS011;51139;45.626;6.850;2022-09-09T03:58:56;1.75;;;0.70;;
64710;SDS011;51139;45.626;6.850;2022-09-09T04:01:22;3.03;;;0.60;;
64710;SDS011;51139;45.626;6.850;2022-09-09T04:03:47;1.40;;;0.77;;
64710;SDS011;51139;45.626;6.850;2022-09-09T04:06:13;2.13;;;0.80;;
64710;SDS011;51139;45.626;6.850;2022-09-09T04:08:39;1.65;;;0.77;;
64710;SDS011;51139;45.626;6.850;2022-09-09T04:11:06;0.98;;;0.68;;
64710;SDS011;51139;45.626;6.850;2022-09-09T04:13:35;1.25;;;0.55;;
64710;SDS011;51139;45.626;6.850;2022-09-09T04:16:05;2.40;;;0.60;;
64710;SDS011;51139;45.626;6.850;2022-09-09T04:18:31;1.60;;;0.70;;
64710;SDS011;51139;45.626;6.850;2022-09-09T04:20:57;1.50;;;0.65;;
64710;SDS011;51139;45.626;6.850;2022-09-09T04:23:24;1.38;;;0.60;;
64710;SDS011;51139;45.626;6.850;2022-09-09T04:25:51;1.35;;;0.40;;
64710;SDS011;51139;45.626;6.850;2022-09-09T04:28:18;1.33;;;0.50;;
64710;SDS011;51139;45.626;6.850;2022-09-09T04:30:45;2.20;;;0.75;;
64710;SDS011;51139;45.626;6.850;2022-09-09T04:33:12;1.10;;;0.57;;
64710;SDS011;51139;45.626;6.850;2022-09-09T04:35:39;2.85;;;0.60;;
64710;SDS011;51139;45.626;6.850;2022-09-09T04:38:08;0.88;;;0.45;;
64710;SDS011;51139;45.626;6.850;2022-09-09T04:40:34;1.67;;;0.50;;
64710;SDS011;51139;45.626;6.850;2022-09-09T04:43:00;1.42;;;0.50;;
64710;SDS011;51139;45.626;6.850;2022-09-09T04:45:28;1.80;;;0.80;;
64710;SDS011;51139;45.626;6.850;2022-09-09T04:47:54;1.77;;;0.70;;
64710;SDS011;51139;45.626;6.850;2022-09-09T04:50:20;0.90;;;0.50;;
64710;SDS011;51139;45.626;6.850;2022-09-09T04:52:45;0.82;;;0.50;;
64710;SDS011;51139;45.626;6.850;2022-09-09T04:55:11;1.55;;;0.70;;
64710;SDS011;51139;45.626;6.850;2022-09-09T04:57:37;1.08;;;0.50;;
64710;SDS011;51139;45.626;6.850;2022-09-09T05:00:03;1.60;;;0.60;;
64710;SDS011;51139;45.626;6.850;2022-09-09T05:02:29;2.08;;;1.00;;
64710;SDS011;51139;45.626;6.850;2022-09-09T05:04:55;1.20;;;0.68;;
64710;SDS011;51139;45.626;6.850;2022-09-09T05:07:21;2.15;;;1.00;;
64710;SDS011;51139;45.626;6.850;2022-09-09T05:09:46;1.73;;;0.70;;
64710;SDS011;51139;45.626;6.850;2022-09-09T05:12:14;0.75;;;0.50;;
64710;SDS011;51139;45.626;6.850;2022-09-09T05:14:41;1.00;;;0.65;;
64710;SDS011;51139;45.626;6.850;2022-09-09T05:17:07;1.42;;;0.70;;
64710;SDS011;51139;45.626;6.850;2022-09-09T05:19:32;1.23;;;0.70;;
64710;SDS011;51139;45.626;6.850;2022-09-09T05:21:58;1.92;;;0.80;;
64710;SDS011;51139;45.626;6.850;2022-09-09T05:24:23;1.23;;;0.60;;
64710;SDS011;51139;45.626;6.850;2022-09-09T05:26:49;1.58;;;0.73;;
64710;SDS011;51139;45.626;6.850;2022-09-09T05:29:14;1.42;;;0.70;;
64710;SDS011;51139;45.626;6.850;2022-09-09T05:31:39;0.93;;;0.70;;
64710;SDS011;51139;45.626;6.850;2022-09-09T05:34:06;1.45;;;0.70;;
64710;SDS011;51139;45.626;6.850;2022-09-09T05:36:31;3.92;;;1.10;;
64710;SDS011;51139;45.626;6.850;2022-09-09T05:38:57;1.55;;;0.70;;
64710;SDS011;51139;45.626;6.850;2022-09-09T05:41:23;3.28;;;0.70;;
64710;SDS011;51139;45.626;6.850;2022-09-09T05:43:48;1.27;;;0.90;;
64710;SDS011;51139;45.626;6.850;2022-09-09T05:46:18;2.22;;;0.70;;
64710;SDS011;51139;45.626;6.850;2022-09-09T05:48:46;2.15;;;0.68;;
64710;SDS011;51139;45.626;6.850;2022-09-09T05:51:16;1.23;;;0.60;;
64710;SDS011;51139;45.626;6.850;2022-09-09T05:53:47;1.70;;;0.88;;
64710;SDS011;51139;45.626;6.850;2022-09-09T05:56:17;4.75;;;0.90;;
64710;SDS011;51139;45.626;6.850;2022-09-09T05:58:50;1.50;;;0.88;;
64710;SDS011;51139;45.626;6.850;2022-09-09T06:01:26;2.35;;;0.90;;
64710;SDS011;51139;45.626;6.850;2022-09-09T06:03:56;1.87;;;0.77;;
64710;SDS011;51139;45.626;6.850;2022-09-09T06:06:23;1.38;;;0.90;;
64710;SDS011;51139;45.626;6.850;2022-09-09T06:08:51;1.75;;;0.77;;
64710;SDS011;51139;45.626;6.850;2022-09-09T06:11:19;1.60;;;0.80;;
64710;SDS011;51139;45.626;6.850;2022-09-09T06:13:46;1.88;;;0.70;;
64710;SDS011;51139;45.626;6.850;2022-09-09T06:16:14;3.83;;;1.45;;
64710;SDS011;51139;45.626;6.850;2022-09-09T06:18:41;2.97;;;0.90;;
64710;SDS011;51139;45.626;6.850;2022-09-09T06:21:28;2.67;;;0.90;;
64710;SDS011;51139;45.626;6.850;2022-09-09T06:23:55;1.88;;;0.95;;
64710;SDS011;51139;45.626;6.850;2022-09-09T06:26:24;2.85;;;1.10;;
64710;SDS011;51139;45.626;6.850;2022-09-09T06:28:52;2.42;;;0.90;;
64710;SDS011;51139;45.626;6.850;2022-09-09T06:31:22;1.17;;;0.90;;
64710;SDS011;51139;45.626;6.850;2022-09-09T06:33:50;2.85;;;1.10;;
64710;SDS011;51139;45.626;6.850;2022-09-09T06:36:20;2.22;;;0.80;;
64710;SDS011;51139;45.626;6.850;2022-09-09T06:38:47;2.03;;;1.17;;
64710;SDS011;51139;45.626;6.850;2022-09-09T06:41:13;2.20;;;0.90;;
64710;SDS011;51139;45.626;6.850;2022-09-09T06:43:41;2.25;;;0.90;;
64710;SDS011;51139;45.626;6.850;2022-09-09T06:46:08;1.88;;;0.75;;
64710;SDS011;51139;45.626;6.850;2022-09-09T06:48:36;1.63;;;0.80;;
64710;SDS011;51139;45.626;6.850;2022-09-09T06:51:07;2.00;;;0.70;;
64710;SDS011;51139;45.626;6.850;2022-09-09T06:53:40;1.35;;;0.70;;
64710;SDS011;51139;45.626;6.850;2022-09-09T06:58:35;1.13;;;0.57;;
64710;SDS011;51139;45.626;6.850;2022-09-09T07:01:09;0.93;;;0.60;;
64710;SDS011;51139;45.626;6.850;2022-09-09T07:03:37;1.45;;;0.57;;
64710;SDS011;51139;45.626;6.850;2022-09-09T07:06:03;2.30;;;0.60;;
64710;SDS011;51139;45.626;6.850;2022-09-09T07:08:29;1.25;;;0.70;;
64710;SDS011;51139;45.626;6.850;2022-09-09T07:11:01;2.13;;;0.73;;
64710;SDS011;51139;45.626;6.850;2022-09-09T07:13:30;1.15;;;0.50;;
64710;SDS011;51139;45.626;6.850;2022-09-09T07:16:03;2.25;;;0.75;;
64710;SDS011;51139;45.626;6.850;2022-09-09T07:18:40;1.58;;;0.60;;
64710;SDS011;51139;45.626;6.850;2022-09-09T07:21:07;0.70;;;0.70;;
64710;SDS011;51139;45.626;6.850;2022-09-09T07:23:34;1.40;;;0.60;;
64710;SDS011;51139;45.626;6.850;2022-09-09T07:26:00;1.63;;;0.70;;
64710;SDS011;51139;45.626;6.850;2022-09-09T07:28:26;1.27;;;0.60;;
64710;SDS011;51139;45.626;6.850;2022-09-09T07:30:57;2.20;;;0.60;;
64710;SDS011;51139;45.626;6.850;2022-09-09T07:33:24;1.15;;;0.60;;
64710;SDS011;51139;45.626;6.850;2022-09-09T07:35:50;1.27;;;0.60;;
64710;SDS011;51139;45.626;6.850;2022-09-09T07:38:17;1.52;;;0.60;;
64710;SDS011;51139;45.626;6.850;2022-09-09T07:40:43;1.10;;;0.50;;
64710;SDS011;51139;45.626;6.850;2022-09-09T07:43:09;1.70;;;0.60;;
64710;SDS011;51139;45.626;6.850;2022-09-09T07:45:35;1.20;;;0.52;;
64710;SDS011;51139;45.626;6.850;2022-09-09T07:48:00;0.93;;;0.47;;
64710;SDS011;51139;45.626;6.850;2022-09-09T07:50:26;2.65;;;0.63;;
64710;SDS011;51139;45.626;6.850;2022-09-09T07:52:52;1.30;;;0.80;;
64710;SDS011;51139;45.626;6.850;2022-09-09T07:55:19;0.70;;;0.50;;
64710;SDS011;51139;45.626;6.850;2022-09-09T07:57:45;1.50;;;0.90;;
64710;SDS011;51139;45.626;6.850;2022-09-09T08:00:11;1.55;;;0.60;;
64710;SDS011;51139;45.626;6.850;2022-09-09T08:02:39;2.10;;;0.68;;
64710;SDS011;51139;45.626;6.850;2022-09-09T08:05:05;1.27;;;0.38;;
64710;SDS011;51139;45.626;6.850;2022-09-09T08:07:31;3.08;;;0.60;;
64710;SDS011;51139;45.626;6.850;2022-09-09T08:09:56;0.82;;;0.57;;
64710;SDS011;51139;45.626;6.850;2022-09-09T08:12:22;1.75;;;0.55;;
64710;SDS011;51139;45.626;6.850;2022-09-09T08:14:48;1.27;;;0.55;;
64710;SDS011;51139;45.626;6.850;2022-09-09T08:17:13;1.42;;;0.55;;
64710;SDS011;51139;45.626;6.850;2022-09-09T08:19:39;1.55;;;0.57;;
64710;SDS011;51139;45.626;6.850;2022-09-09T08:22:04;2.08;;;0.73;;
64710;SDS011;51139;45.626;6.850;2022-09-09T08:24:31;1.70;;;0.50;;
64710;SDS011;51139;45.626;6.850;2022-09-09T08:26:56;0.80;;;0.45;;
64710;SDS011;51139;45.626;6.850;2022-09-09T08:29:22;1.38;;;0.57;;
64710;SDS011;51139;45.626;6.850;2022-09-09T08:31:49;1.05;;;0.60;;
64710;SDS011;51139;45.626;6.850;2022-09-09T08:34:22;1.65;;;0.43;;
64710;SDS011;51139;45.626;6.850;2022-09-09T08:36:48;0.65;;;0.50;;
64710;SDS011;51139;45.626;6.850;2022-09-09T08:39:15;0.88;;;0.50;;
64710;SDS011;51139;45.626;6.850;2022-09-09T08:47:33;1.17;;;0.43;;
64710;SDS011;51139;45.626;6.850;2022-09-09T08:58:21;1.70;;;0.45;;
64710;SDS011;51139;45.626;6.850;2022-09-09T09:11:57;1.75;;;0.35;;
64710;SDS011;51139;45.626;6.850;2022-09-09T09:14:28;0.73;;;0.38;;
64710;SDS011;51139;45.626;6.850;2022-09-09T09:19:28;0.52;;;0.32;;
64710;SDS011;51139;45.626;6.850;2022-09-09T09:22:04;1.73;;;0.43;;
64710;SDS011;51139;45.626;6.850;2022-09-09T09:27:36;0.60;;;0.30;;
64710;SDS011;51139;45.626;6.850;2022-09-09T09:30:17;0.38;;;0.32;;
64710;SDS011;51139;45.626;6.850;2022-09-09T09:35:28;2.15;;;0.47;;
64710;SDS011;51139;45.626;6.850;2022-09-09T09:37:53;1.98;;;0.40;;
64710;SDS011;51139;45.626;6.850;2022-09-09T09:40:20;1.30;;;0.40;;
64710;SDS011;51139;45.626;6.850;2022-09-09T09:43:17;1.00;;;0.40;;
64710;SDS011;51139;45.626;6.850;2022-09-09T09:45:45;1.05;;;0.40;;
64710;SDS011;51139;45.626;6.850;2022-09-09T09:48:11;1.02;;;0.30;;
64710;SDS011;51139;45.626;6.850;2022-09-09T09:50:54;0.85;;;0.30;;
64710;SDS011;51139;45.626;6.850;2022-09-09T09:53:32;0.45;;;0.30;;
64710;SDS011;51139;45.626;6.850;2022-09-09T09:56:05;0.47;;;0.30;;
64710;SDS011;51139;45.626;6.850;2022-09-09T09:58:57;0.38;;;0.30;;
64710;SDS011;51139;45.626;6.850;2022-09-09T10:01:22;1.45;;;0.32;;
64710;SDS011;51139;45.626;6.850;2022-09-09T10:03:54;0.95;;;0.30;;
64710;SDS011;51139;45.626;6.850;2022-09-09T10:06:32;0.35;;;0.28;;
64710;SDS011;51139;45.626;6.850;2022-09-09T10:08:59;0.32;;;0.30;;
64710;SDS011;51139;45.626;6.850;2022-09-09T10:11:31;0.73;;;0.30;;
64710;SDS011;51139;45.626;6.850;2022-09-09T10:19:16;0.32;;;0.30;;
64710;SDS011;51139;45.626;6.850;2022-09-09T10:22:01;0.50;;;0.30;;
64710;SDS011;51139;45.626;6.850;2022-09-09T10:30:01;0.22;;;0.22;;
64710;SDS011;51139;45.626;6.850;2022-09-09T10:35:01;2.00;;;0.30;;
64710;SDS011;51139;45.626;6.850;2022-09-09T10:43:03;1.42;;;0.40;;
64710;SDS011;51139;45.626;6.850;2022-09-09T10:45:48;0.60;;;0.32;;
64710;SDS011;51139;45.626;6.850;2022-09-09T10:51:33;0.90;;;0.40;;
64710;SDS011;51139;45.626;6.850;2022-09-09T10:56:44;0.20;;;0.20;;
64710;SDS011;51139;45.626;6.850;2022-09-09T10:59:22;0.32;;;0.30;;
64710;SDS011;51139;45.626;6.850;2022-09-09T11:01:53;1.27;;;0.40;;
64710;SDS011;51139;45.626;6.850;2022-09-09T11:06:59;0.63;;;0.30;;
64710;SDS011;51139;45.626;6.850;2022-09-09T11:09:31;0.63;;;0.30;;
64710;SDS011;51139;45.626;6.850;2022-09-09T11:12:01;1.30;;;0.40;;
64710;SDS011;51139;45.626;6.850;2022-09-09T11:14:31;0.77;;;0.40;;
64710;SDS011;51139;45.626;6.850;2022-09-09T11:17:04;0.80;;;0.38;;
64710;SDS011;51139;45.626;6.850;2022-09-09T11:19:40;0.50;;;0.40;;
64710;SDS011;51139;45.626;6.850;2022-09-09T11:24:35;0.87;;;0.30;;
64710;SDS011;51139;45.626;6.850;2022-09-09T11:38:12;1.05;;;0.28;;
64710;SDS011;51139;45.626;6.850;2022-09-09T11:40:43;0.55;;;0.30;;
64710;SDS011;51139;45.626;6.850;2022-09-09T11:45:39;0.40;;;0.30;;
64710;SDS011;51139;45.626;6.850;2022-09-09T11:48:21;0.82;;;0.40;;
64710;SDS011;51139;45.626;6.850;2022-09-09T11:51:03;0.55;;;0.20;;
64710;SDS011;51139;45.626;6.850;2022-09-09T11:53:30;0.45;;;0.30;;
64710;SDS011;51139;45.626;6.850;2022-09-09T11:56:03;0.50;;;0.30;;
64710;SDS011;51139;45.626;6.850;2022-09-09T11:58:32;0.40;;;0.20;;
64710;SDS011;51139;45.626;6.850;2022-09-09T12:01:12;1.35;;;0.30;;
64710;SDS011;51139;45.626;6.850;2022-09-09T12:03:46;0.25;;;0.20;;
64710;SDS011;51139;45.626;6.850;2022-09-09T12:06:30;0.32;;;0.20;;
64710;SDS011;51139;45.626;6.850;2022-09-09T12:11:46;0.20;;;0.20;;
64710;SDS011;51139;45.626;6.850;2022-09-09T12:14:19;0.32;;;0.20;;
64710;SDS011;51139;45.626;6.850;2022-09-09T12:17:08;0.77;;;0.40;;
64710;SDS011;51139;45.626;6.850;2022-09-09T12:19:34;0.20;;;0.10;;
64710;SDS011;51139;45.626;6.850;2022-09-09T12:22:22;0.75;;;0.28;;
64710;SDS011;51139;45.626;6.850;2022-09-09T12:25:01;1.02;;;0.75;;
64710;SDS011;51139;45.626;6.850;2022-09-09T12:30:39;0.85;;;0.35;;
64710;SDS011;51139;45.626;6.850;2022-09-09T12:33:16;0.98;;;0.22;;
64710;SDS011;51139;45.626;6.850;2022-09-09T12:35:44;0.60;;;0.20;;
64710;SDS011;51139;45.626;6.850;2022-09-09T12:38:22;1.38;;;0.30;;
64710;SDS011;51139;45.626;6.850;2022-09-09T12:41:24;0.32;;;0.30;;
64710;SDS011;51139;45.626;6.850;2022-09-09T12:43:51;0.45;;;0.20;;
64710;SDS011;51139;45.626;6.850;2022-09-09T12:46:39;0.90;;;0.30;;
64710;SDS011;51139;45.626;6.850;2022-09-09T12:51:51;0.50;;;0.30;;
64710;SDS011;51139;45.626;6.850;2022-09-09T12:54:17;0.40;;;0.38;;
64710;SDS011;51139;45.626;6.850;2022-09-09T12:56:47;0.28;;;0.25;;
64710;SDS011;51139;45.626;6.850;2022-09-09T12:59:22;0.15;;;0.10;;
64710;SDS011;51139;45.626;6.850;2022-09-09T13:01:56;1.13;;;0.32;;
64710;SDS011;51139;45.626;6.850;2022-09-09T13:04:22;0.50;;;0.30;;
64710;SDS011;51139;45.626;6.850;2022-09-09T13:06:48;0.40;;;0.30;;
64710;SDS011;51139;45.626;6.850;2022-09-09T13:09:14;1.35;;;0.30;;
64710;SDS011;51139;45.626;6.850;2022-09-09T13:11:43;0.57;;;0.20;;
64710;SDS011;51139;45.626;6.850;2022-09-09T13:14:22;0.95;;;0.30;;
64710;SDS011;51139;45.626;6.850;2022-09-09T13:16:58;1.48;;;0.63;;
64710;SDS011;51139;45.626;6.850;2022-09-09T13:19:25;0.32;;;0.30;;
64710;SDS011;51139;45.626;6.850;2022-09-09T13:24:24;1.20;;;0.30;;
64710;SDS011;51139;45.626;6.850;2022-09-09T13:29:54;0.30;;;0.27;;
64710;SDS011;51139;45.626;6.850;2022-09-09T13:32:22;0.30;;;0.20;;
64710;SDS011;51139;45.626;6.850;2022-09-09T13:34:51;1.80;;;0.43;;
64710;SDS011;51139;45.626;6.850;2022-09-09T13:40:03;0.77;;;0.40;;
64710;SDS011;51139;45.626;6.850;2022-09-09T13:42:31;1.08;;;0.40;;
64710;SDS011;51139;45.626;6.850;2022-09-09T13:45:03;3.03;;;0.40;;
64710;SDS011;51139;45.626;6.850;2022-09-09T13:47:32;1.02;;;0.28;;
64710;SDS011;51139;45.626;6.850;2022-09-09T13:52:47;1.42;;;0.38;;
64710;SDS011;51139;45.626;6.850;2022-09-09T13:55:15;0.80;;;0.35;;
64710;SDS011;51139;45.626;6.850;2022-09-09T13:57:49;0.95;;;0.40;;
64710;SDS011;51139;45.626;6.850;2022-09-09T14:00:16;0.50;;;0.30;;
64710;SDS011;51139;45.626;6.850;2022-09-09T14:02:41;1.95;;;0.30;;
64710;SDS011;51139;45.626;6.850;2022-09-09T14:05:09;0.70;;;0.30;;
64710;SDS011;51139;45.626;6.850;2022-09-09T14:07:36;0.60;;;0.20;;
64710;SDS011;51139;45.626;6.850;2022-09-09T14:10:03;1.33;;;0.20;;
64710;SDS011;51139;45.626;6.850;2022-09-09T14:12:29;0.73;;;0.40;;
64710;SDS011;51139;45.626;6.850;2022-09-09T14:14:54;1.10;;;0.30;;
64710;SDS011;51139;45.626;6.850;2022-09-09T14:17:20;2.42;;;0.30;;
64710;SDS011;51139;45.626;6.850;2022-09-09T14:19:47;0.47;;;0.40;;
64710;SDS011;51139;45.626;6.850;2022-09-09T14:22:12;1.67;;;0.52;;
64710;SDS011;51139;45.626;6.850;2022-09-09T14:24:38;1.17;;;0.32;;
64710;SDS011;51139;45.626;6.850;2022-09-09T14:27:03;0.50;;;0.30;;
64710;SDS011;51139;45.626;6.850;2022-09-09T14:29:28;0.63;;;0.20;;
64710;SDS011;51139;45.626;6.850;2022-09-09T14:31:54;0.28;;;0.28;;
64710;SDS011;51139;45.626;6.850;2022-09-09T14:34:19;0.85;;;0.43;;
64710;SDS011;51139;45.626;6.850;2022-09-09T14:36:45;0.40;;;0.30;;
64710;SDS011;51139;45.626;6.850;2022-09-09T14:39:10;1.48;;;0.40;;
64710;SDS011;51139;45.626;6.850;2022-09-09T14:41:36;0.60;;;0.38;;
64710;SDS011;51139;45.626;6.850;2022-09-09T14:44:01;0.85;;;0.43;;
64710;SDS011;51139;45.626;6.850;2022-09-09T14:46:27;0.68;;;0.50;;
64710;SDS011;51139;45.626;6.850;2022-09-09T14:48:52;0.93;;;0.30;;
64710;SDS011;51139;45.626;6.850;2022-09-09T14:51:20;0.52;;;0.30;;
64710;SDS011;51139;45.626;6.850;2022-09-09T14:53:54;0.55;;;0.32;;
64710;SDS011;51139;45.626;6.850;2022-09-09T14:56:22;0.80;;;0.30;;
64710;SDS011;51139;45.626;6.850;2022-09-09T14:58:50;0.73;;;0.30;;
64710;SDS011;51139;45.626;6.850;2022-09-09T15:01:17;0.55;;;0.40;;
64710;SDS011;51139;45.626;6.850;2022-09-09T15:03:48;0.77;;;0.30;;
64710;SDS011;51139;45.626;6.850;2022-09-09T15:06:18;1.27;;;0.52;;
64710;SDS011;51139;45.626;6.850;2022-09-09T15:08:44;0.45;;;0.40;;
64710;SDS011;51139;45.626;6.850;2022-09-09T15:11:11;0.63;;;0.40;;
64710;SDS011;51139;45.626;6.850;2022-09-09T15:13:38;2.05;;;0.60;;
64710;SDS011;51139;45.626;6.850;2022-09-09T15:16:05;1.13;;;0.30;;
64710;SDS011;51139;45.626;6.850;2022-09-09T15:18:32;1.13;;;0.40;;
64710;SDS011;51139;45.626;6.850;2022-09-09T15:21:04;0.30;;;0.30;;
64710;SDS011;51139;45.626;6.850;2022-09-09T15:23:31;0.70;;;0.30;;
64710;SDS011;51139;45.626;6.850;2022-09-09T15:25:57;1.65;;;0.40;;
64710;SDS011;51139;45.626;6.850;2022-09-09T15:28:23;1.38;;;0.40;;
64710;SDS011;51139;45.626;6.850;2022-09-09T15:30:49;1.90;;;0.50;;
64710;SDS011;51139;45.626;6.850;2022-09-09T15:33:16;0.38;;;0.30;;
64710;SDS011;51139;45.626;6.850;2022-09-09T15:35:42;1.58;;;0.25;;
64710;SDS011;51139;45.626;6.850;2022-09-09T15:38:08;0.30;;;0.22;;
64710;SDS011;51139;45.626;6.850;2022-09-09T15:40:33;0.47;;;0.30;;
64710;SDS011;51139;45.626;6.850;2022-09-09T15:42:58;0.68;;;0.30;;
64710;SDS011;51139;45.626;6.850;2022-09-09T15:45:24;1.77;;;0.40;;
64710;SDS011;51139;45.626;6.850;2022-09-09T15:47:49;0.88;;;0.30;;
64710;SDS011;51139;45.626;6.850;2022-09-09T15:50:15;1.23;;;0.57;;
64710;SDS011;51139;45.626;6.850;2022-09-09T15:52:41;0.70;;;0.35;;
64710;SDS011;51139;45.626;6.850;2022-09-09T15:55:06;0.63;;;0.40;;
64710;SDS011;51139;45.626;6.850;2022-09-09T15:57:33;0.82;;;0.30;;
64710;SDS011;51139;45.626;6.850;2022-09-09T15:59:59;0.50;;;0.30;;
64710;SDS011;51139;45.626;6.850;2022-09-09T16:02:25;0.52;;;0.32;;
64710;SDS011;51139;45.626;6.850;2022-09-09T16:04:50;0.43;;;0.30;;
64710;SDS011;51139;45.626;6.850;2022-09-09T16:07:16;0.70;;;0.40;;
64710;SDS011;51139;45.626;6.850;2022-09-09T16:09:41;0.65;;;0.40;;
64710;SDS011;51139;45.626;6.850;2022-09-09T16:12:08;1.02;;;0.43;;
64710;SDS011;51139;45.626;6.850;2022-09-09T16:14:36;0.32;;;0.30;;
64710;SDS011;51139;45.626;6.850;2022-09-09T16:17:03;1.50;;;0.50;;
64710;SDS011;51139;45.626;6.850;2022-09-09T16:19:30;1.33;;;0.50;;
64710;SDS011;51139;45.626;6.850;2022-09-09T16:21:56;2.80;;;0.50;;
64710;SDS011;51139;45.626;6.850;2022-09-09T16:24:21;0.73;;;0.30;;
64710;SDS011;51139;45.626;6.850;2022-09-09T16:26:49;3.33;;;0.80;;
64710;SDS011;51139;45.626;6.850;2022-09-09T16:29:17;2.47;;;1.20;;
64710;SDS011;51139;45.626;6.850;2022-09-09T16:31:43;1.77;;;0.70;;
64710;SDS011;51139;45.626;6.850;2022-09-09T16:34:10;1.48;;;0.40;;
64710;SDS011;51139;45.626;6.850;2022-09-09T16:36:37;1.65;;;0.90;;
64710;SDS011;51139;45.626;6.850;2022-09-09T16:39:07;0.57;;;0.57;;
64710;SDS011;51139;45.626;6.850;2022-09-09T16:41:37;1.17;;;0.50;;
64710;SDS011;51139;45.626;6.850;2022-09-09T16:44:05;1.00;;;0.40;;
64710;SDS011;51139;45.626;6.850;2022-09-09T16:46:33;1.30;;;0.57;;
64710;SDS011;51139;45.626;6.850;2022-09-09T16:49:01;0.75;;;0.38;;
64710;SDS011;51139;45.626;6.850;2022-09-09T16:51:29;2.35;;;0.52;;
64710;SDS011;51139;45.626;6.850;2022-09-09T16:53:57;0.88;;;0.40;;
64710;SDS011;51139;45.626;6.850;2022-09-09T16:56:25;0.77;;;0.30;;
64710;SDS011;51139;45.626;6.850;2022-09-09T16:58:55;1.42;;;0.45;;
64710;SDS011;51139;45.626;6.850;2022-09-09T17:01:23;1.48;;;0.70;;
64710;SDS011;51139;45.626;6.850;2022-09-09T17:03:56;1.85;;;0.40;;
64710;SDS011;51139;45.626;6.850;2022-09-09T17:06:22;0.73;;;0.40;;
64710;SDS011;51139;45.626;6.850;2022-09-09T17:08:53;1.20;;;0.38;;
64710;SDS011;51139;45.626;6.850;2022-09-09T17:13:55;0.95;;;0.40;;
64710;SDS011;51139;45.626;6.850;2022-09-09T17:16:23;2.08;;;0.32;;
64710;SDS011;51139;45.626;6.850;2022-09-09T17:18:51;1.55;;;0.30;;
64710;SDS011;51139;45.626;6.850;2022-09-09T17:21:18;1.30;;;0.55;;
64710;SDS011;51139;45.626;6.850;2022-09-09T17:23:45;0.63;;;0.40;;
64710;SDS011;51139;45.626;6.850;2022-09-09T17:26:13;1.13;;;0.52;;